createdAt,value
2022-08-07T00:02:41.159Z,23.32
2022-08-07T00:05:05.719Z,23.28
2022-08-07T00:07:41.159Z,22.98
2022-08-07T00:10:29.518Z,23.09
2022-08-07T00:13:09.643Z,23.13
2022-08-07T00:15:51.893Z,23.09
2022-08-07T00:18:25.119Z,23.15
2022-08-07T00:21:08.130Z,23.15
2022-08-07T00:23:53.268Z,23.09
2022-08-07T00:26:49.341Z,23.09
2022-08-07T00:29:09.373Z,23.03
2022-08-07T00:31:42.079Z,23.02
2022-08-07T00:34:10.702Z,23.06
2022-08-07T00:36:43.185Z,23.03
2022-08-07T00:39:17.098Z,23.02
2022-08-07T00:41:53.671Z,22.97
2022-08-07T00:44:30.490Z,22.95
2022-08-07T00:47:06.650Z,22.98
2022-08-07T00:50:20.544Z,22.88
2022-08-07T00:52:33.397Z,22.88
2022-08-07T00:55:10.616Z,22.58
2022-08-07T00:57:55.058Z,22.64
2022-08-07T01:00:25.026Z,22.72
2022-08-07T01:03:14.782Z,22.69
2022-08-07T01:05:53.499Z,22.69
2022-08-07T01:08:22.304Z,22.66
2022-08-07T01:10:56.677Z,22.61
2022-08-07T01:13:28.761Z,22.58
2022-08-07T01:16:06.106Z,22.55
2022-08-07T01:18:35.849Z,22.50
2022-08-07T01:21:22.663Z,22.54
2022-08-07T01:23:54.312Z,22.43
2022-08-07T01:26:26.078Z,22.36
2022-08-07T01:28:55.694Z,22.36
2022-08-07T01:31:42.436Z,22.34
2022-08-07T01:34:14.292Z,22.30
2022-08-07T01:36:44.428Z,22.31
2022-08-07T01:39:39.436Z,22.26
2022-08-07T01:42:38.747Z,22.24
2022-08-07T01:45:00.555Z,22.19
2022-08-07T01:48:19.912Z,22.24
2022-08-07T01:50:22.708Z,22.20
2022-08-07T01:53:08.784Z,22.21
2022-08-07T01:55:46.726Z,22.19
2022-08-07T01:58:28.912Z,22.14
2022-08-07T02:01:09.810Z,22.07
2022-08-07T02:03:48.932Z,22.03
2022-08-07T02:06:31.679Z,21.96
2022-08-07T02:09:11.715Z,21.92
2022-08-07T02:12:17.796Z,21.83
2022-08-07T02:14:58.968Z,21.77
2022-08-07T02:17:40.923Z,21.73
2022-08-07T02:20:23.731Z,21.68
2022-08-07T02:23:00.116Z,21.60
2022-08-07T02:26:26.776Z,21.55
2022-08-07T02:28:24.552Z,21.48
2022-08-07T02:30:59.402Z,21.44
2022-08-07T02:33:57.352Z,21.38
2022-08-07T02:36:31.826Z,21.29
2022-08-07T02:39:16.747Z,21.24
2022-08-07T02:41:54.990Z,21.16
2022-08-07T02:44:34.366Z,21.07
2022-08-07T02:47:08.351Z,20.95
2022-08-07T02:49:58.284Z,20.97
2022-08-07T02:53:00.906Z,20.97
2022-08-07T02:56:03.128Z,20.86
2022-08-07T02:58:28.396Z,20.89
2022-08-07T03:01:04.160Z,20.85
2022-08-07T03:03:48.942Z,20.89
2022-08-07T03:06:26.247Z,20.86
2022-08-07T03:09:11.154Z,20.82
2022-08-07T03:11:57.427Z,20.83
2022-08-07T03:14:30.849Z,20.83
2022-08-07T03:16:59.606Z,20.82
2022-08-07T03:19:37.146Z,20.90
2022-08-07T03:22:07.898Z,20.89
2022-08-07T03:24:53.190Z,20.92
2022-08-07T03:27:30.393Z,20.92
2022-08-07T03:30:03.815Z,20.90
2022-08-07T03:32:48.950Z,20.92
2022-08-07T03:35:44.100Z,20.92
2022-08-07T03:38:29.402Z,20.90
2022-08-07T03:41:01.732Z,20.89
2022-08-07T03:43:35.976Z,20.86
2022-08-07T03:46:10.537Z,20.92
2022-08-07T03:49:02.626Z,20.87
2022-08-07T03:51:47.894Z,20.81
2022-08-07T03:54:36.065Z,20.79
2022-08-07T03:58:33.395Z,20.76
2022-08-07T04:00:10.493Z,20.72
2022-08-07T04:02:47.103Z,20.65
2022-08-07T04:05:39.173Z,20.57
2022-08-07T04:08:18.276Z,20.54
2022-08-07T04:10:54.666Z,20.50
2022-08-07T04:14:32.961Z,20.42
2022-08-07T04:16:31.148Z,20.42
2022-08-07T04:19:12.588Z,20.45
2022-08-07T04:22:04.855Z,20.42
2022-08-07T04:24:41.201Z,20.28
2022-08-07T04:27:20.789Z,20.35
2022-08-07T04:30:01.588Z,20.34
2022-08-07T04:32:58.204Z,20.30
2022-08-07T04:35:35.324Z,20.30
2022-08-07T04:38:11.417Z,20.35
2022-08-07T04:40:52.796Z,20.33
2022-08-07T04:44:10.470Z,20.36
2022-08-07T04:47:07.579Z,20.36
2022-08-07T04:49:57.734Z,20.32
2022-08-07T04:53:40.243Z,20.33
2022-08-07T04:58:14.032Z,20.35
2022-08-07T05:00:09.920Z,20.40
2022-08-07T05:04:17.157Z,20.35
2022-08-07T05:07:36.557Z,20.48
2022-08-07T05:10:23.513Z,20.53
2022-08-07T05:14:54.506Z,20.56
2022-08-07T05:16:09.454Z,20.58
2022-08-07T05:18:48.930Z,20.68
2022-08-07T05:22:00.461Z,20.70
2022-08-07T05:24:18.245Z,20.76
2022-08-07T05:26:59.345Z,20.84
2022-08-07T05:29:39.073Z,20.84
2022-08-07T05:32:19.376Z,20.91
2022-08-07T05:34:50.061Z,21.00
2022-08-07T05:37:25.380Z,21.01
2022-08-07T05:40:05.889Z,21.05
2022-08-07T05:42:43.431Z,21.15
2022-08-07T05:45:46.942Z,21.19
2022-08-07T05:48:19.389Z,21.22
2022-08-07T05:50:56.875Z,21.29
2022-08-07T05:54:13.413Z,21.34
2022-08-07T05:56:18.285Z,21.39
2022-08-07T05:58:53.082Z,21.43
2022-08-07T06:01:35.701Z,21.49
2022-08-07T06:04:09.385Z,21.48
2022-08-07T06:06:45.874Z,21.57
2022-08-07T06:09:17.272Z,21.64
2022-08-07T06:11:51.775Z,21.65
2022-08-07T06:14:28.664Z,21.76
2022-08-07T06:17:01.376Z,21.84
2022-08-07T06:19:57.633Z,21.93
2022-08-07T06:22:38.909Z,22.02
2022-08-07T06:25:37.354Z,22.13
2022-08-07T06:28:14.865Z,22.05
2022-08-07T06:30:46.139Z,22.29
2022-08-07T06:33:23.424Z,22.54
2022-08-07T06:36:12.158Z,22.69
2022-08-07T06:38:58.555Z,22.91
2022-08-07T06:42:02.967Z,23.10
2022-08-07T06:44:53.295Z,23.27
2022-08-07T06:47:26.965Z,23.41
2022-08-07T06:49:59.076Z,23.57
2022-08-07T06:52:42.315Z,23.74
2022-08-07T06:55:48.011Z,23.91
2022-08-07T06:58:24.520Z,24.04
2022-08-07T07:01:10.501Z,24.19
2022-08-07T07:03:50.210Z,24.30
2022-08-07T07:06:27.641Z,24.41
2022-08-07T07:08:58.137Z,24.41
2022-08-07T07:12:07.888Z,24.60
2022-08-07T07:14:19.031Z,24.67
2022-08-07T07:16:53.627Z,24.80
2022-08-07T07:19:57.993Z,24.87
2022-08-07T07:22:36.744Z,24.92
2022-08-07T07:26:33.481Z,24.93
2022-08-07T07:28:42.194Z,25.09
2022-08-07T07:31:30.420Z,25.13
2022-08-07T07:34:13.412Z,25.28
2022-08-07T07:36:47.987Z,25.36
2022-08-07T07:39:25.509Z,25.43
2022-08-07T07:42:13.406Z,25.48
2022-08-07T07:44:49.558Z,25.52
2022-08-07T07:47:23.891Z,25.57
2022-08-07T07:50:36.409Z,25.59
2022-08-07T07:52:44.507Z,25.65
2022-08-07T07:55:20.181Z,25.75
2022-08-07T07:57:58.166Z,25.78
2022-08-07T08:00:31.457Z,25.87
2022-08-07T08:03:16.630Z,25.96
2022-08-07T08:05:54.005Z,25.97
2022-08-07T08:08:34.887Z,26.10
2022-08-07T08:11:16.610Z,26.18
2022-08-07T08:13:54.130Z,26.23
2022-08-07T08:16:50.188Z,26.28
2022-08-07T08:20:17.329Z,26.36
2022-08-07T08:22:33.317Z,26.43
2022-08-07T08:25:41.892Z,26.50
2022-08-07T08:28:23.902Z,26.60
2022-08-07T08:31:14.819Z,26.63
2022-08-07T08:33:49.558Z,26.76
2022-08-07T08:36:29.723Z,26.82
2022-08-07T08:39:02.766Z,26.87
2022-08-07T08:41:57.587Z,26.98
2022-08-07T08:44:53.032Z,27.03
2022-08-07T08:48:01.062Z,27.07
2022-08-07T08:50:47.915Z,27.11
2022-08-07T08:53:42.460Z,27.14
2022-08-07T08:56:47.212Z,27.23
2022-08-07T08:59:54.271Z,27.27
2022-08-07T09:03:02.108Z,27.28
2022-08-07T09:05:52.138Z,27.37
2022-08-07T09:08:58.771Z,27.47
2022-08-07T09:12:29.968Z,27.52
2022-08-07T09:16:21.513Z,27.60
2022-08-07T09:19:51.533Z,27.64
2022-08-07T09:24:55.521Z,27.71
2022-08-07T09:25:54.211Z,27.80
2022-08-07T09:30:01.528Z,27.88
2022-08-07T09:31:48.464Z,27.93
2022-08-07T09:34:53.871Z,27.99
2022-08-07T09:37:48.453Z,28.08
2022-08-07T09:40:52.267Z,28.18
2022-08-07T09:44:03.477Z,28.26
2022-08-07T09:47:52.607Z,28.33
2022-08-07T09:50:18.614Z,28.44
2022-08-07T09:53:00.844Z,28.50
2022-08-07T09:56:05.473Z,28.58
2022-08-07T09:59:07.826Z,28.64
2022-08-07T10:02:24.963Z,28.69
2022-08-07T10:05:59.539Z,28.73
2022-08-07T10:09:07.139Z,28.68
2022-08-07T10:12:21.808Z,28.77
2022-08-07T10:15:44.314Z,28.80
2022-08-07T10:18:43.917Z,28.87
2022-08-07T10:22:14.523Z,28.91
2022-08-07T10:25:42.055Z,28.92
2022-08-07T10:28:49.703Z,29.00
2022-08-07T10:32:04.546Z,29.03
2022-08-07T10:35:20.543Z,29.08
2022-08-07T10:38:42.132Z,29.16
2022-08-07T10:41:53.100Z,29.20
2022-08-07T10:44:54.695Z,29.34
2022-08-07T10:47:52.832Z,29.38
2022-08-07T10:50:53.056Z,29.45
2022-08-07T10:54:00.322Z,29.48
2022-08-07T10:56:56.336Z,29.51
2022-08-07T10:59:47.717Z,29.51
2022-08-07T11:03:14.924Z,29.57
2022-08-07T11:06:18.329Z,29.64
2022-08-07T11:10:07.677Z,29.70
2022-08-07T11:12:38.596Z,29.70
2022-08-07T11:15:26.295Z,29.74
2022-08-07T11:18:20.759Z,29.80
2022-08-07T11:21:18.748Z,29.85
2022-08-07T11:24:08.356Z,29.85
2022-08-07T11:26:53.895Z,29.89
2022-08-07T11:30:17.761Z,29.91
2022-08-07T11:33:54.011Z,29.93
2022-08-07T11:36:42.978Z,29.95
2022-08-07T11:39:59.807Z,30.00
2022-08-07T11:43:03.063Z,30.03
2022-08-07T11:46:07.023Z,30.10
2022-08-07T11:49:27.605Z,30.12
2022-08-07T11:52:19.719Z,30.12
2022-08-07T11:56:12.038Z,30.07
2022-08-07T12:00:08.157Z,30.12
2022-08-07T12:02:30.148Z,30.16
2022-08-07T12:05:28.826Z,30.19
2022-08-07T12:08:25.675Z,30.23
2022-08-07T12:11:22.437Z,30.30
2022-08-07T12:14:04.116Z,30.30
2022-08-07T12:16:46.926Z,30.36
2022-08-07T12:20:03.459Z,30.39
2022-08-07T12:23:37.321Z,30.43
2022-08-07T12:26:50.517Z,30.47
2022-08-07T12:29:59.436Z,30.47
2022-08-07T12:32:34.364Z,30.50
2022-08-07T12:35:10.615Z,30.56
2022-08-07T12:38:09.413Z,30.55
2022-08-07T12:40:47.530Z,30.58
2022-08-07T12:44:04.552Z,30.63
2022-08-07T12:46:37.319Z,30.67
2022-08-07T12:49:51.298Z,30.71
2022-08-07T12:52:57.052Z,30.73
2022-08-07T12:56:02.589Z,30.75
2022-08-07T12:58:53.209Z,30.72
2022-08-07T13:02:10.082Z,30.78
2022-08-07T13:06:01.740Z,30.83
2022-08-07T13:08:18.795Z,30.84
2022-08-07T13:11:23.904Z,30.65
2022-08-07T13:14:03.785Z,30.81
2022-08-07T13:17:02.378Z,30.90
2022-08-07T13:20:21.940Z,30.99
2022-08-07T13:23:09.916Z,30.97
2022-08-07T13:26:03.804Z,31.01
2022-08-07T13:28:47.343Z,31.03
2022-08-07T13:31:54.884Z,31.05
2022-08-07T13:34:48.520Z,31.13
2022-08-07T13:38:03.975Z,31.11
2022-08-07T13:40:53.064Z,31.17
2022-08-07T13:43:27.002Z,31.14
2022-08-07T13:46:11.831Z,31.26
2022-08-07T13:48:58.678Z,31.27
2022-08-07T13:52:05.133Z,31.23
2022-08-07T13:54:33.572Z,31.34
2022-08-07T13:57:14.666Z,31.38
2022-08-07T13:59:57.697Z,31.34
2022-08-07T14:02:39.550Z,31.31
2022-08-07T14:05:23.296Z,31.44
2022-08-07T14:08:00.813Z,31.46
2022-08-07T14:10:41.984Z,31.50
2022-08-07T14:13:16.615Z,31.51
2022-08-07T14:16:05.321Z,31.59
2022-08-07T14:18:57.049Z,31.57
2022-08-07T14:22:03.410Z,31.63
2022-08-07T14:24:43.354Z,31.63
2022-08-07T14:30:11.939Z,31.62
2022-08-07T14:32:48.399Z,31.66
2022-08-07T14:35:44.814Z,31.73
2022-08-07T14:38:24.514Z,31.70
2022-08-07T14:41:12.194Z,31.72
2022-08-07T14:43:57.987Z,31.75
2022-08-07T14:46:34.589Z,31.76
2022-08-07T14:49:56.214Z,31.81
2022-08-07T14:52:04.657Z,31.84
2022-08-07T14:54:44.854Z,31.86
2022-08-07T14:57:19.782Z,31.87
2022-08-07T15:02:39.046Z,31.84
2022-08-07T15:05:20.303Z,31.92
2022-08-07T15:07:54.262Z,31.95
2022-08-07T15:16:14.696Z,31.98
2022-08-07T15:18:51.807Z,32.01
2022-08-07T15:21:59.617Z,32.04
2022-08-07T15:27:31.309Z,31.99
2022-08-07T15:30:16.524Z,32.03
2022-08-07T15:33:01.549Z,32.08
2022-08-07T15:38:51.652Z,32.14
2022-08-07T15:44:23.587Z,32.04
2022-08-07T15:47:17.005Z,32.07
2022-08-07T15:52:44.241Z,32.06
2022-08-07T15:55:23.178Z,32.05
2022-08-07T15:58:00.413Z,32.06
2022-08-07T16:00:37.994Z,32.10
2022-08-07T16:03:47.251Z,32.12
2022-08-07T16:06:15.387Z,32.09
2022-08-07T16:08:49.669Z,32.12
2022-08-07T16:12:03.867Z,32.08
2022-08-07T16:15:57.821Z,32.07
2022-08-07T16:18:49.679Z,32.05
2022-08-07T16:21:44.394Z,32.06
2022-08-07T16:24:53.017Z,32.05
2022-08-07T16:27:39.808Z,32.05
2022-08-07T16:30:30.511Z,32.05
2022-08-07T16:34:01.723Z,32.03
2022-08-07T16:37:01.925Z,32.00
2022-08-07T16:40:32.110Z,31.94
2022-08-07T16:44:06.280Z,31.90
2022-08-07T16:47:04.568Z,31.94
2022-08-07T16:50:27.886Z,31.95
2022-08-07T16:53:48.096Z,31.95
2022-08-07T16:56:37.531Z,31.89
2022-08-07T16:59:51.629Z,31.87
2022-08-07T17:02:53.951Z,31.83
2022-08-07T17:06:19.541Z,31.80
2022-08-07T17:10:08.344Z,31.73
2022-08-07T17:13:20.650Z,31.73
2022-08-07T17:16:17.728Z,31.47
2022-08-07T17:20:02.989Z,31.60
2022-08-07T17:23:21.058Z,31.58
2022-08-07T17:26:36.862Z,31.58
2022-08-07T17:30:14.990Z,31.53
2022-08-07T17:34:08.891Z,31.54
2022-08-07T17:36:27.892Z,31.54
2022-08-07T17:39:25.242Z,31.54
2022-08-07T17:42:28.477Z,31.49
2022-08-07T17:45:04.580Z,31.44
2022-08-07T17:48:04.540Z,31.48
2022-08-07T17:50:55.144Z,31.45
2022-08-07T17:54:39.926Z,31.37
2022-08-07T17:57:58.440Z,31.32
2022-08-07T18:00:27.507Z,31.28
2022-08-07T18:03:25.361Z,31.26
2022-08-07T18:06:09.360Z,31.26
2022-08-07T18:09:02.242Z,31.22
2022-08-07T18:12:17.425Z,31.20
2022-08-07T18:15:01.437Z,31.13
2022-08-07T18:18:33.083Z,31.11
2022-08-07T18:21:40.104Z,31.01
2022-08-07T18:24:32.963Z,30.97
2022-08-07T18:27:45.037Z,30.91
2022-08-07T18:30:31.377Z,30.85
2022-08-07T18:33:29.073Z,30.81
2022-08-07T18:36:43.915Z,30.72
2022-08-07T18:40:08.055Z,30.68
2022-08-07T18:43:57.699Z,30.49
2022-08-07T18:46:43.122Z,30.52
2022-08-07T18:50:19.686Z,30.50
2022-08-07T18:52:55.000Z,30.42
2022-08-07T18:55:57.265Z,30.30
2022-08-07T18:58:43.097Z,30.27
2022-08-07T19:02:18.121Z,30.17
2022-08-07T19:05:09.702Z,30.13
2022-08-07T19:08:07.117Z,30.00
2022-08-07T19:11:35.041Z,29.97
2022-08-07T19:14:26.269Z,29.90
2022-08-07T19:17:22.097Z,29.82
2022-08-07T19:20:29.771Z,29.75
2022-08-07T19:23:19.530Z,29.71
2022-08-07T19:26:22.845Z,29.57
2022-08-07T19:30:56.577Z,29.54
2022-08-07T19:32:16.337Z,29.41
2022-08-07T19:35:01.450Z,29.42
2022-08-07T19:37:47.262Z,29.38
2022-08-07T19:40:31.007Z,29.27
2022-08-07T19:43:22.068Z,29.25
2022-08-07T19:46:10.824Z,29.18
2022-08-07T19:48:54.088Z,29.18
2022-08-07T19:51:53.285Z,29.08
2022-08-07T19:54:31.809Z,29.04
2022-08-07T19:58:02.556Z,28.94
2022-08-07T20:00:09.028Z,28.82
2022-08-07T20:02:53.862Z,28.67
2022-08-07T20:06:01.293Z,28.59
2022-08-07T20:08:30.253Z,28.52
2022-08-07T20:11:09.667Z,28.40
2022-08-07T20:13:54.041Z,28.33
2022-08-07T20:16:36.454Z,28.19
2022-08-07T20:19:11.975Z,28.07
2022-08-07T20:21:47.584Z,27.93
2022-08-07T20:24:28.633Z,27.78
2022-08-07T20:27:07.648Z,27.68
2022-08-07T20:29:58.460Z,27.51
2022-08-07T20:32:46.619Z,27.42
2022-08-07T20:35:26.373Z,27.27
2022-08-07T20:37:59.455Z,27.16
2022-08-07T20:40:44.100Z,27.12
2022-08-07T20:43:25.636Z,26.71
2022-08-07T20:46:27.237Z,26.88
2022-08-07T20:49:54.659Z,26.88
2022-08-07T20:51:50.187Z,26.82
2022-08-07T20:54:30.339Z,26.81
2022-08-07T20:57:08.272Z,26.83
2022-08-07T21:00:07.756Z,26.79
2022-08-07T21:02:54.217Z,26.73
2022-08-07T21:05:54.961Z,26.70
2022-08-07T21:08:48.354Z,26.36
2022-08-07T21:11:29.014Z,26.47
2022-08-07T21:14:35.634Z,26.47
2022-08-07T21:18:20.782Z,26.40
2022-08-07T21:20:07.035Z,26.43
2022-08-07T21:22:55.251Z,26.42
2022-08-07T21:25:56.104Z,26.47
2022-08-07T21:28:48.342Z,26.43
2022-08-07T21:32:42.349Z,26.44
2022-08-07T21:35:00.556Z,26.40
2022-08-07T21:37:59.268Z,26.34
2022-08-07T21:40:45.912Z,26.31
2022-08-07T21:43:47.153Z,26.29
2022-08-07T21:46:46.278Z,26.21
2022-08-07T21:50:00.855Z,26.11
2022-08-07T21:52:40.653Z,26.01
2022-08-07T21:55:27.866Z,25.91
2022-08-07T21:59:06.674Z,25.67
2022-08-07T22:02:11.050Z,25.65
2022-08-07T22:04:51.268Z,25.56
2022-08-07T22:07:48.679Z,25.46
2022-08-07T22:10:20.109Z,25.43
2022-08-07T22:13:13.738Z,25.34
2022-08-07T22:16:41.561Z,25.26
2022-08-07T22:19:29.231Z,25.16
2022-08-07T22:22:28.526Z,25.06
2022-08-07T22:25:12.066Z,25.04
2022-08-07T22:28:31.923Z,24.97
2022-08-07T22:31:55.879Z,24.86
2022-08-07T22:34:49.768Z,24.79
2022-08-07T22:37:27.490Z,24.67
2022-08-07T22:41:03.506Z,24.61
2022-08-07T22:43:50.623Z,24.54
2022-08-07T22:47:04.449Z,24.53
2022-08-07T22:50:21.000Z,24.44
2022-08-07T22:53:15.325Z,24.38
2022-08-07T22:55:58.296Z,24.36
2022-08-07T22:58:45.752Z,24.31
2022-08-07T23:02:04.262Z,24.19
2022-08-07T23:06:07.757Z,24.17
2022-08-07T23:07:57.558Z,24.09
2022-08-07T23:10:51.263Z,24.10
2022-08-07T23:13:48.860Z,24.07
2022-08-07T23:16:55.474Z,24.02
2022-08-07T23:20:51.518Z,23.92
2022-08-07T23:24:05.051Z,23.78
2022-08-07T23:26:56.818Z,23.60
2022-08-07T23:30:38.524Z,23.56
2022-08-07T23:34:36.244Z,23.45
2022-08-07T23:37:19.610Z,23.47
2022-08-07T23:40:02.449Z,23.14
2022-08-07T23:43:07.793Z,23.26
2022-08-07T23:46:10.703Z,23.28
2022-08-07T23:49:15.199Z,23.27
2022-08-07T23:53:01.232Z,23.20
2022-08-07T23:55:08.410Z,23.15
2022-08-07T23:58:07.965Z,23.13
